Impacts METAR Board
IDs:

KPIT - Pittsburgh Intl, PA, US

Updated at: 2000 UTC 24 Apr 2018
Potential Impact None Slight Moderate High
Time 24/08Z 24/09Z 24/10Z 24/11Z 24/12Z 24/13Z 24/14Z 24/15Z 24/16Z 24/17Z 24/18Z 24/19Z 24/20Z
Temp53 53 52 52 51 49 49 49 50 51 53 54 54
Dewpt46 45 43 40 43 44 45 47 48 49 51 52 50
Altim30.17 30.17 30.16 30.16 30.16 30.15 30.14 30.13 30.11 30.08 30.07 30.04 30.02
VIS10 10 10 10 10 9 6 6 7 7 8 10 6
CIG85 70 100 65 50 50 50 65 60 60 13 14 24
CoverOVCOVCOVCOVCOVCOVCOVCOVCOVCOVCOVCOVCOVC
FltCatVFRVFRVFRVFRVFRVFRVFRVFRVFRVFRMVFRMVFRMVFR
WX-------RA-RA-RA-RA BR-RA BR-RA-RA-RA-RA-RA BR
WDir120110110130110100808010080100110110
WSpd8 9 8 7 6 7 8 7 7 8 10 11 11
WGst-- -- -- -- -- -- -- -- -- -- -- -- --
Raw hourly METARs
KPIT 240751Z 12008KT 10SM OVC085 12/08 A3017 RMK AO2 SLP220 T01170078
KPIT 240851Z 11009KT 10SM OVC070 12/07 A3017 RMK AO2 RAB29E46 SLP220 P0000 60000 T01170072 56006
KPIT 240951Z 11008KT 10SM FEW055 SCT070 OVC100 11/06 A3016 RMK AO2 SLP218 T01110061
KPIT 241051Z 13007KT 10SM -RA BKN065 OVC080 11/04 A3016 RMK AO2 RAB07 SLP219 P0000 T01110044
KPIT 241151Z 11006KT 10SM -RA BKN050 OVC070 11/06 A3016 RMK AO2 SLP218 P0000 60000 T01060061 10128 20106 56002
KPIT 241251Z 10007KT 9SM -RA OVC050 09/07 A3015 RMK AO2 SLP216 P0002 T00940067
KPIT 241351Z 08008KT 6SM -RA BR BKN050 OVC070 09/07 A3014 RMK AO2 SLP215 P0004 T00940072
KPIT 241451Z 08007KT 6SM -RA BR FEW032 BKN065 OVC075 09/08 A3013 RMK AO2 SLP210 P0004 60010 T00940083 58009
KPIT 241551Z 10007KT 7SM -RA FEW030 BKN060 OVC075 10/09 A3011 RMK AO2 SLP204 P0005 T01000089
KPIT 241651Z 08008KT 7SM -RA SCT007 BKN060 OVC070 11/09 A3008 RMK AO2 SLP194 P0004 T01060094
KPIT 241751Z 10010KT 8SM -RA SCT009 BKN013 OVC060 12/11 A3007 RMK AO2 SLP190 P0002 60021 T01170106 10117 20094 56020
KPIT 241851Z COR 11011KT 10SM -RA BKN014 BKN042 OVC065 12/11 A3004 RMK AO2 SLP179 P0002 T01220111
KPIT 241951Z 11011KT 6SM -RA BR SCT017 BKN024 OVC055 12/10 A3002 RMK AO2 SLP173 P0000 T01220100



Page loaded:  20:50 UTC  |   01:50 PM Pacific  |   02:50 PM Mountain  |   03:50 PM Central  |   04:50 PM Eastern

 

ADVISORIES

FORECASTS

FORECASTS

OBSERVATIONS

USER TOOLS

ABOUT US